createdAt,value
2018-01-15T00:04:11.020Z,24.90
2018-01-15T00:09:39.228Z,21.60
2018-01-15T00:15:11.163Z,21.30
2018-01-15T00:20:39.391Z,22.23
2018-01-15T00:26:07.816Z,21.47
2018-01-15T00:31:36.030Z,22.30
2018-01-15T00:37:10.312Z,23.57
2018-01-15T00:42:38.533Z,23.87
2018-01-15T00:48:06.729Z,26.47
2018-01-15T00:53:34.971Z,26.87
2018-01-15T00:59:03.234Z,24.70
2018-01-15T01:04:33.154Z,28.53
2018-01-15T01:10:01.405Z,28.97
2018-01-15T01:15:30.392Z,25.70
2018-01-15T01:20:58.607Z,22.37
2018-01-15T01:26:26.821Z,23.30
2018-01-15T01:31:55.033Z,19.30
2018-01-15T01:37:33.348Z,22.47
2018-01-15T01:43:01.557Z,21.90
2018-01-15T01:48:30.685Z,21.80
2018-01-15T01:53:59.065Z,22.53
2018-01-15T01:59:28.269Z,19.53
2018-01-15T02:04:56.721Z,28.33
2018-01-15T02:10:25.992Z,22.70
2018-01-15T02:15:54.964Z,24.23
2018-01-15T02:21:35.276Z,22.03
2018-01-15T02:27:04.423Z,22.67
2018-01-15T02:32:33.826Z,24.60
2018-01-15T02:38:02.396Z,23.50
2018-01-15T02:43:30.840Z,22.77
2018-01-15T02:48:59.294Z,23.20
2018-01-15T02:54:28.284Z,24.83
2018-01-15T02:59:56.495Z,23.50
2018-01-15T03:05:24.730Z,21.03
2018-01-15T03:10:52.960Z,25.40
2018-01-15T03:16:21.165Z,22.23
2018-01-15T03:21:49.381Z,20.90
2018-01-15T03:27:18.647Z,22.57
2018-01-15T03:32:46.845Z,19.63
2018-01-15T03:38:15.821Z,23.47
2018-01-15T03:43:44.044Z,22.37
2018-01-15T03:49:12.272Z,21.77
2018-01-15T03:54:40.489Z,21.30
2018-01-15T04:00:08.689Z,32.20
2018-01-15T04:05:41.007Z,29.77
2018-01-15T04:11:09.217Z,22.17
2018-01-15T04:16:37.459Z,18.50
2018-01-15T04:22:05.706Z,20.20
2018-01-15T04:27:34.505Z,24.20
2018-01-15T04:33:12.305Z,22.63
2018-01-15T04:38:41.308Z,23.00
2018-01-15T04:44:11.346Z,22.27
2018-01-15T04:49:39.571Z,24.33
2018-01-15T04:55:07.774Z,25.10
2018-01-15T05:00:37.839Z,25.97
2018-01-15T05:06:06.311Z,25.30
2018-01-15T05:11:34.520Z,22.73
2018-01-15T05:17:11.501Z,23.77
2018-01-15T05:22:39.693Z,22.10
2018-01-15T05:28:09.623Z,28.97
2018-01-15T05:33:45.183Z,31.00
2018-01-15T05:39:13.474Z,27.87
2018-01-15T05:44:42.501Z,25.30
2018-01-15T05:50:10.697Z,28.30
2018-01-15T05:55:38.920Z,32.83
2018-01-15T06:01:07.157Z,37.20
2018-01-15T06:06:35.380Z,29.33
2018-01-15T06:12:03.616Z,30.10
2018-01-15T06:17:31.827Z,31.10
2018-01-15T06:23:00.441Z,30.40
2018-01-15T06:28:28.712Z,30.20
2018-01-15T06:33:56.952Z,29.40
2018-01-15T06:39:25.218Z,29.27
2018-01-15T06:44:53.646Z,28.20
2018-01-15T06:50:24.633Z,28.23
2018-01-15T06:55:54.102Z,26.03
2018-01-15T07:01:22.375Z,29.43
2018-01-15T07:06:50.808Z,24.63
2018-01-15T07:12:20.167Z,27.47
2018-01-15T07:17:49.455Z,29.00
2018-01-15T07:23:17.874Z,32.67
2018-01-15T07:28:46.524Z,33.63
2018-01-15T07:34:15.047Z,29.00
2018-01-15T07:39:43.614Z,26.10
2018-01-15T07:45:12.090Z,25.57
2018-01-15T07:50:40.583Z,26.20
2018-01-15T07:56:09.807Z,35.97
2018-01-15T08:01:38.114Z,29.37
2018-01-15T08:07:06.386Z,31.97
2018-01-15T08:12:34.661Z,26.90
2018-01-15T08:18:02.882Z,30.83
2018-01-15T08:23:31.113Z,26.80
2018-01-15T08:28:59.310Z,26.23
2018-01-15T08:34:27.600Z,29.33
2018-01-15T08:39:55.942Z,27.83
2018-01-15T08:45:31.688Z,27.57
2018-01-15T08:50:59.908Z,31.73
2018-01-15T08:56:28.151Z,27.60
2018-01-15T09:01:56.444Z,28.67
2018-01-15T09:07:24.797Z,32.30
2018-01-15T09:12:53.076Z,31.27
2018-01-15T09:18:21.283Z,26.37
2018-01-15T09:23:49.500Z,25.80
2018-01-15T09:29:17.742Z,27.17
2018-01-15T09:34:46.106Z,28.20
2018-01-15T09:40:14.320Z,28.00
2018-01-15T09:45:42.541Z,27.13
2018-01-15T09:51:10.759Z,25.47
2018-01-15T09:56:38.933Z,23.57
2018-01-15T10:02:07.152Z,29.93
2018-01-15T10:07:36.117Z,28.13
2018-01-15T10:13:04.310Z,21.30
2018-01-15T10:18:32.489Z,26.50
2018-01-15T10:24:00.712Z,24.30
2018-01-15T10:29:28.906Z,23.43
2018-01-15T10:34:57.144Z,19.97
2018-01-15T10:40:25.341Z,25.33
2018-01-15T10:45:53.572Z,19.60
2018-01-15T10:51:21.790Z,20.57
2018-01-15T10:56:50.004Z,18.90
2018-01-15T11:02:18.186Z,20.50
2018-01-15T11:07:46.412Z,20.07
2018-01-15T11:13:15.396Z,22.43
2018-01-15T11:18:43.581Z,20.07
2018-01-15T11:24:12.551Z,14.27
2018-01-15T11:29:41.532Z,15.83
2018-01-15T11:35:09.732Z,16.97
2018-01-15T11:40:37.952Z,16.80
2018-01-15T11:46:06.167Z,12.80
2018-01-15T11:51:34.380Z,17.97
2018-01-15T11:57:02.613Z,16.13
2018-01-15T12:02:31.615Z,18.80
2018-01-15T12:07:59.820Z,22.23
2018-01-15T12:13:28.946Z,18.03
2018-01-15T12:18:57.165Z,17.40
2018-01-15T12:24:25.361Z,17.63
2018-01-15T12:29:53.553Z,20.50
2018-01-15T12:35:21.756Z,20.33
2018-01-15T12:40:49.932Z,16.20
2018-01-15T12:46:18.166Z,20.20
2018-01-15T12:51:46.373Z,20.00
2018-01-15T12:57:14.607Z,15.87
2018-01-15T13:02:42.796Z,20.27
2018-01-15T13:08:12.512Z,20.23
2018-01-15T13:13:41.479Z,21.30
2018-01-15T13:19:09.689Z,19.20
2018-01-15T13:24:38.623Z,17.93
2018-01-15T13:30:06.801Z,17.00
2018-01-15T13:35:35.007Z,17.23
2018-01-15T13:41:03.329Z,15.50
2018-01-15T13:46:31.512Z,17.30
2018-01-15T13:51:59.709Z,14.20
2018-01-15T13:57:28.670Z,15.63
2018-01-15T14:02:56.885Z,15.07
2018-01-15T14:08:25.089Z,17.40
2018-01-15T14:13:53.300Z,18.83
2018-01-15T14:19:21.471Z,16.80
2018-01-15T14:24:49.696Z,15.17
2018-01-15T14:30:17.898Z,14.57
2018-01-15T14:35:46.081Z,14.60
2018-01-15T14:41:15.045Z,16.10
2018-01-15T14:46:43.260Z,15.17
2018-01-15T14:52:11.440Z,15.37
2018-01-15T14:57:39.656Z,16.27
2018-01-15T15:03:07.893Z,22.93
2018-01-15T15:08:36.091Z,23.87
2018-01-15T15:14:05.240Z,41.43
2018-01-15T15:19:33.465Z,20.20
2018-01-15T15:25:07.375Z,13.73
2018-01-15T15:30:36.402Z,18.33
2018-01-15T15:36:04.608Z,11.77
2018-01-15T15:41:33.603Z,18.40
2018-01-15T15:47:01.800Z,20.03
2018-01-15T15:52:30.018Z,20.30
2018-01-15T15:57:58.213Z,15.40
2018-01-15T16:03:27.189Z,16.23
2018-01-15T16:08:55.395Z,14.67
2018-01-15T16:14:24.213Z,15.57
2018-01-15T16:19:52.418Z,16.57
2018-01-15T16:25:20.641Z,12.90
2018-01-15T16:30:48.812Z,15.17
2018-01-15T16:36:17.074Z,13.43
2018-01-15T16:41:45.293Z,15.40
2018-01-15T16:47:13.493Z,15.63
2018-01-15T16:52:41.707Z,15.80
2018-01-15T16:58:10.907Z,15.80
2018-01-15T17:03:43.869Z,13.57
2018-01-15T17:09:13.012Z,17.60
2018-01-15T17:14:41.192Z,15.70
2018-01-15T17:20:10.168Z,15.40
2018-01-15T17:25:38.421Z,15.87
2018-01-15T17:31:11.182Z,20.23
2018-01-15T17:36:39.505Z,16.40
2018-01-15T17:42:07.705Z,19.23
2018-01-15T17:47:35.964Z,16.23
2018-01-15T17:53:04.166Z,18.93
2018-01-15T17:58:33.121Z,18.87
2018-01-15T18:04:01.333Z,17.13
2018-01-15T18:09:30.459Z,19.33
2018-01-15T18:14:58.660Z,15.63
2018-01-15T18:20:32.175Z,14.57
2018-01-15T18:26:00.380Z,14.80
2018-01-15T18:31:28.564Z,14.43
2018-01-15T18:36:57.705Z,14.07
2018-01-15T18:42:25.907Z,13.40
2018-01-15T18:47:54.088Z,15.10
2018-01-15T18:53:22.286Z,13.90
2018-01-15T18:58:51.252Z,13.57
2018-01-15T19:04:19.452Z,15.97
2018-01-15T19:09:47.927Z,13.30
2018-01-15T19:15:17.201Z,16.40
2018-01-15T19:20:45.403Z,15.63
2018-01-15T19:26:13.615Z,14.97
2018-01-15T19:31:41.838Z,14.50
2018-01-15T19:37:10.010Z,14.17
2018-01-15T19:42:38.258Z,12.70
2018-01-15T19:48:20.210Z,15.83
2018-01-15T20:00:04.440Z,15.37
2018-01-15T20:05:38.321Z,15.10
2018-01-15T20:11:13.779Z,20.37
2018-01-15T20:16:41.990Z,15.20
2018-01-15T20:22:10.203Z,14.77
2018-01-15T20:27:42.604Z,16.50
2018-01-15T20:33:10.832Z,13.23
2018-01-15T20:38:39.048Z,15.33
2018-01-15T20:44:07.266Z,17.60
2018-01-15T20:49:36.397Z,15.87
2018-01-15T20:55:08.242Z,16.30
2018-01-15T21:00:41.126Z,16.53
2018-01-15T21:06:09.317Z,17.83
2018-01-15T21:11:37.517Z,25.83
2018-01-15T21:17:10.304Z,21.33
2018-01-15T21:22:38.529Z,30.77
2018-01-15T21:28:08.145Z,27.73
2018-01-15T21:33:36.413Z,23.80
2018-01-15T21:39:05.675Z,21.07
2018-01-15T21:44:33.932Z,18.70
2018-01-15T21:50:02.233Z,19.33
2018-01-15T21:55:39.195Z,13.67
2018-01-15T22:01:07.413Z,13.13
2018-01-15T22:06:35.697Z,9.80
2018-01-15T22:12:05.846Z,12.70
2018-01-15T22:17:41.267Z,10.30
2018-01-15T22:23:10.551Z,9.13
2018-01-15T22:28:39.854Z,8.03
2018-01-15T22:34:08.549Z,12.80
2018-01-15T22:39:37.763Z,12.00
2018-01-15T22:45:05.964Z,12.23
2018-01-15T22:50:34.930Z,9.80
2018-01-15T22:56:07.773Z,1.40
2018-01-15T23:01:38.075Z,4.80
2018-01-15T23:07:06.284Z,5.50
2018-01-15T23:12:34.477Z,5.70
2018-01-15T23:18:05.801Z,6.93
2018-01-15T23:23:34.008Z,3.60
2018-01-15T23:29:02.230Z,1.93
2018-01-15T23:34:30.426Z,1.40
2018-01-15T23:39:59.629Z,2.40
2018-01-15T23:45:28.611Z,2.60
2018-01-15T23:56:33.254Z,1.90
